sensor_id;sensor_type;location;lat;lon;timestamp;temperature;humidity
30764;DHT22;17497;51.476;7.770;2023-07-31T00:00:51;15.20;99.90
30764;DHT22;17497;51.476;7.770;2023-07-31T00:03:18;15.20;99.90
30764;DHT22;17497;51.476;7.770;2023-07-31T00:05:45;15.20;99.90
30764;DHT22;17497;51.476;7.770;2023-07-31T00:08:12;15.20;99.90
30764;DHT22;17497;51.476;7.770;2023-07-31T00:10:39;15.20;99.90
30764;DHT22;17497;51.476;7.770;2023-07-31T00:13:06;15.20;99.90
30764;DHT22;17497;51.476;7.770;2023-07-31T00:15:32;15.20;99.90
30764;DHT22;17497;51.476;7.770;2023-07-31T00:18:00;15.20;99.90
30764;DHT22;17497;51.476;7.770;2023-07-31T00:20:28;15.20;99.90
30764;DHT22;17497;51.476;7.770;2023-07-31T00:22:54;15.20;99.90
30764;DHT22;17497;51.476;7.770;2023-07-31T00:25:21;15.20;99.90
30764;DHT22;17497;51.476;7.770;2023-07-31T00:27:51;15.10;99.90
30764;DHT22;17497;51.476;7.770;2023-07-31T00:30:18;15.10;99.90
30764;DHT22;17497;51.476;7.770;2023-07-31T00:32:44;15.10;99.90
30764;DHT22;17497;51.476;7.770;2023-07-31T00:35:13;15.10;99.90
30764;DHT22;17497;51.476;7.770;2023-07-31T00:37:40;15.10;99.90
30764;DHT22;17497;51.476;7.770;2023-07-31T00:40:08;15.10;99.90
30764;DHT22;17497;51.476;7.770;2023-07-31T00:42:34;15.10;99.90
30764;DHT22;17497;51.476;7.770;2023-07-31T00:45:01;15.10;99.90
30764;DHT22;17497;51.476;7.770;2023-07-31T00:47:28;15.10;99.90
30764;DHT22;17497;51.476;7.770;2023-07-31T00:49:55;15.10;99.90
30764;DHT22;17497;51.476;7.770;2023-07-31T00:52:22;15.10;99.90
30764;DHT22;17497;51.476;7.770;2023-07-31T00:54:49;15.10;99.90
30764;DHT22;17497;51.476;7.770;2023-07-31T00:57:17;15.10;99.90
30764;DHT22;17497;51.476;7.770;2023-07-31T00:59:43;15.10;99.90
30764;DHT22;17497;51.476;7.770;2023-07-31T01:02:10;15.10;99.90
30764;DHT22;17497;51.476;7.770;2023-07-31T01:04:37;15.10;99.90
30764;DHT22;17497;51.476;7.770;2023-07-31T01:07:26;15.10;99.90
30764;DHT22;17497;51.476;7.770;2023-07-31T01:10:01;15.10;99.90
30764;DHT22;17497;51.476;7.770;2023-07-31T01:12:30;15.10;99.90
30764;DHT22;17497;51.476;7.770;2023-07-31T01:17:27;15.10;99.90
30764;DHT22;17497;51.476;7.770;2023-07-31T01:19:56;15.10;99.90
30764;DHT22;17497;51.476;7.770;2023-07-31T01:25:42;15.10;99.90
30764;DHT22;17497;51.476;7.770;2023-07-31T01:28:14;15.10;99.90
30764;DHT22;17497;51.476;7.770;2023-07-31T01:30:44;15.10;99.90
30764;DHT22;17497;51.476;7.770;2023-07-31T01:33:16;15.10;99.90
30764;DHT22;17497;51.476;7.770;2023-07-31T01:35:44;15.10;99.90
30764;DHT22;17497;51.476;7.770;2023-07-31T01:38:11;15.10;99.90
30764;DHT22;17497;51.476;7.770;2023-07-31T01:40:41;15.10;99.90
30764;DHT22;17497;51.476;7.770;2023-07-31T01:43:09;15.10;99.90
30764;DHT22;17497;51.476;7.770;2023-07-31T01:45:35;15.10;99.90
30764;DHT22;17497;51.476;7.770;2023-07-31T01:48:02;15.10;99.90
30764;DHT22;17497;51.476;7.770;2023-07-31T01:50:29;15.20;99.90
30764;DHT22;17497;51.476;7.770;2023-07-31T01:52:56;15.10;99.90
30764;DHT22;17497;51.476;7.770;2023-07-31T01:55:25;15.10;99.90
30764;DHT22;17497;51.476;7.770;2023-07-31T01:57:51;15.10;99.90
30764;DHT22;17497;51.476;7.770;2023-07-31T02:00:24;15.10;99.90
30764;DHT22;17497;51.476;7.770;2023-07-31T02:02:50;15.10;99.90
30764;DHT22;17497;51.476;7.770;2023-07-31T02:05:17;15.10;99.90
30764;DHT22;17497;51.476;7.770;2023-07-31T02:07:44;15.10;99.90
30764;DHT22;17497;51.476;7.770;2023-07-31T02:10:11;15.10;99.90
30764;DHT22;17497;51.476;7.770;2023-07-31T02:12:37;15.10;99.90
30764;DHT22;17497;51.476;7.770;2023-07-31T02:15:05;15.10;99.90
30764;DHT22;17497;51.476;7.770;2023-07-31T02:17:34;15.10;99.90
30764;DHT22;17497;51.476;7.770;2023-07-31T02:20:01;15.10;99.90
30764;DHT22;17497;51.476;7.770;2023-07-31T02:22:28;15.10;99.90
30764;DHT22;17497;51.476;7.770;2023-07-31T02:24:55;15.10;99.90
30764;DHT22;17497;51.476;7.770;2023-07-31T02:27:22;15.10;99.90
30764;DHT22;17497;51.476;7.770;2023-07-31T02:29:54;15.20;99.90
30764;DHT22;17497;51.476;7.770;2023-07-31T02:32:21;15.10;99.90
30764;DHT22;17497;51.476;7.770;2023-07-31T02:34:48;15.20;99.90
30764;DHT22;17497;51.476;7.770;2023-07-31T02:37:15;15.20;99.90
30764;DHT22;17497;51.476;7.770;2023-07-31T02:39:42;15.20;99.90
30764;DHT22;17497;51.476;7.770;2023-07-31T02:42:09;15.20;99.90
30764;DHT22;17497;51.476;7.770;2023-07-31T02:44:36;15.20;99.90
30764;DHT22;17497;51.476;7.770;2023-07-31T02:47:05;15.20;99.90
30764;DHT22;17497;51.476;7.770;2023-07-31T02:49:32;15.20;99.90
30764;DHT22;17497;51.476;7.770;2023-07-31T02:51:59;15.20;99.90
30764;DHT22;17497;51.476;7.770;2023-07-31T02:54:26;15.20;99.90
30764;DHT22;17497;51.476;7.770;2023-07-31T02:56:52;15.20;99.90
30764;DHT22;17497;51.476;7.770;2023-07-31T02:59:20;15.20;99.90
30764;DHT22;17497;51.476;7.770;2023-07-31T03:01:46;15.20;99.90
30764;DHT22;17497;51.476;7.770;2023-07-31T03:04:13;15.20;99.90
30764;DHT22;17497;51.476;7.770;2023-07-31T03:06:44;15.20;99.90
30764;DHT22;17497;51.476;7.770;2023-07-31T03:09:10;15.20;99.90
30764;DHT22;17497;51.476;7.770;2023-07-31T03:11:38;15.30;99.90
30764;DHT22;17497;51.476;7.770;2023-07-31T03:14:10;15.30;99.90
30764;DHT22;17497;51.476;7.770;2023-07-31T03:16:37;15.30;99.90
30764;DHT22;17497;51.476;7.770;2023-07-31T03:19:04;15.30;99.90
30764;DHT22;17497;51.476;7.770;2023-07-31T03:21:34;15.30;99.90
30764;DHT22;17497;51.476;7.770;2023-07-31T03:24:00;15.30;99.90
30764;DHT22;17497;51.476;7.770;2023-07-31T03:26:27;15.30;99.90
30764;DHT22;17497;51.476;7.770;2023-07-31T03:28:55;15.30;99.90
30764;DHT22;17497;51.476;7.770;2023-07-31T03:31:52;15.30;99.90
30764;DHT22;17497;51.476;7.770;2023-07-31T03:34:18;15.30;99.90
30764;DHT22;17497;51.476;7.770;2023-07-31T03:36:45;15.30;99.90
30764;DHT22;17497;51.476;7.770;2023-07-31T03:39:13;15.30;99.90
30764;DHT22;17497;51.476;7.770;2023-07-31T03:41:46;15.30;99.90
30764;DHT22;17497;51.476;7.770;2023-07-31T03:44:22;15.40;99.90
30764;DHT22;17497;51.476;7.770;2023-07-31T03:46:48;15.30;99.90
30764;DHT22;17497;51.476;7.770;2023-07-31T03:49:15;15.30;99.90
30764;DHT22;17497;51.476;7.770;2023-07-31T03:51:42;15.40;99.90
30764;DHT22;17497;51.476;7.770;2023-07-31T03:54:09;15.40;99.90
30764;DHT22;17497;51.476;7.770;2023-07-31T03:56:36;15.30;99.90
30764;DHT22;17497;51.476;7.770;2023-07-31T03:59:05;15.40;99.90
30764;DHT22;17497;51.476;7.770;2023-07-31T04:01:32;15.40;99.90
30764;DHT22;17497;51.476;7.770;2023-07-31T04:03:58;15.40;99.90
30764;DHT22;17497;51.476;7.770;2023-07-31T04:06:25;15.40;99.90
30764;DHT22;17497;51.476;7.770;2023-07-31T04:08:52;15.40;99.90
30764;DHT22;17497;51.476;7.770;2023-07-31T04:11:18;15.50;99.90
30764;DHT22;17497;51.476;7.770;2023-07-31T04:13:45;15.60;99.90
30764;DHT22;17497;51.476;7.770;2023-07-31T04:16:13;15.60;99.90
30764;DHT22;17497;51.476;7.770;2023-07-31T04:18:48;15.60;99.90
30764;DHT22;17497;51.476;7.770;2023-07-31T04:21:20;15.70;99.90
30764;DHT22;17497;51.476;7.770;2023-07-31T04:24:09;15.70;99.90
30764;DHT22;17497;51.476;7.770;2023-07-31T04:26:39;15.70;99.90
30764;DHT22;17497;51.476;7.770;2023-07-31T04:29:06;15.70;99.90
30764;DHT22;17497;51.476;7.770;2023-07-31T04:31:38;15.80;99.90
30764;DHT22;17497;51.476;7.770;2023-07-31T04:34:06;15.80;99.90
30764;DHT22;17497;51.476;7.770;2023-07-31T04:36:34;15.90;99.90
30764;DHT22;17497;51.476;7.770;2023-07-31T04:39:01;15.90;99.90
30764;DHT22;17497;51.476;7.770;2023-07-31T04:41:28;15.90;99.90
30764;DHT22;17497;51.476;7.770;2023-07-31T04:43:54;15.90;99.90
30764;DHT22;17497;51.476;7.770;2023-07-31T04:46:21;16.00;99.90
30764;DHT22;17497;51.476;7.770;2023-07-31T04:48:48;16.00;99.90
30764;DHT22;17497;51.476;7.770;2023-07-31T04:51:15;16.00;99.90
30764;DHT22;17497;51.476;7.770;2023-07-31T04:53:41;16.00;99.90
30764;DHT22;17497;51.476;7.770;2023-07-31T04:56:08;16.00;99.90
30764;DHT22;17497;51.476;7.770;2023-07-31T04:58:35;16.00;99.90
30764;DHT22;17497;51.476;7.770;2023-07-31T05:01:01;16.00;99.90
30764;DHT22;17497;51.476;7.770;2023-07-31T05:03:28;16.00;99.90
30764;DHT22;17497;51.476;7.770;2023-07-31T05:06:03;16.00;99.90
30764;DHT22;17497;51.476;7.770;2023-07-31T05:08:46;16.10;99.90
30764;DHT22;17497;51.476;7.770;2023-07-31T05:11:14;16.10;99.90
30764;DHT22;17497;51.476;7.770;2023-07-31T05:13:44;16.10;99.90
30764;DHT22;17497;51.476;7.770;2023-07-31T05:16:17;16.10;99.90
30764;DHT22;17497;51.476;7.770;2023-07-31T05:18:44;16.10;99.90
30764;DHT22;17497;51.476;7.770;2023-07-31T05:21:11;16.10;99.90
30764;DHT22;17497;51.476;7.770;2023-07-31T05:23:38;16.10;99.90
30764;DHT22;17497;51.476;7.770;2023-07-31T05:26:06;16.10;99.90
30764;DHT22;17497;51.476;7.770;2023-07-31T05:28:34;16.10;99.90
30764;DHT22;17497;51.476;7.770;2023-07-31T05:31:02;16.10;99.90
30764;DHT22;17497;51.476;7.770;2023-07-31T05:33:29;16.10;99.90
30764;DHT22;17497;51.476;7.770;2023-07-31T05:35:56;16.00;99.90
30764;DHT22;17497;51.476;7.770;2023-07-31T05:38:23;15.90;99.90
30764;DHT22;17497;51.476;7.770;2023-07-31T05:40:50;15.80;99.90
30764;DHT22;17497;51.476;7.770;2023-07-31T05:43:17;15.80;99.90
30764;DHT22;17497;51.476;7.770;2023-07-31T05:45:44;15.80;99.90
30764;DHT22;17497;51.476;7.770;2023-07-31T05:48:10;15.80;99.90
30764;DHT22;17497;51.476;7.770;2023-07-31T05:50:37;15.80;99.90
30764;DHT22;17497;51.476;7.770;2023-07-31T05:53:06;15.80;99.90
30764;DHT22;17497;51.476;7.770;2023-07-31T05:55:34;15.90;99.90
30764;DHT22;17497;51.476;7.770;2023-07-31T05:58:01;15.90;99.90
30764;DHT22;17497;51.476;7.770;2023-07-31T06:00:28;15.90;99.90
30764;DHT22;17497;51.476;7.770;2023-07-31T06:02:55;16.00;99.90
30764;DHT22;17497;51.476;7.770;2023-07-31T06:05:22;16.00;99.90
30764;DHT22;17497;51.476;7.770;2023-07-31T06:07:48;16.10;99.90
30764;DHT22;17497;51.476;7.770;2023-07-31T06:10:15;16.10;99.90
30764;DHT22;17497;51.476;7.770;2023-07-31T06:12:42;16.10;99.90
30764;DHT22;17497;51.476;7.770;2023-07-31T06:15:09;16.20;99.90
30764;DHT22;17497;51.476;7.770;2023-07-31T06:17:36;16.20;99.90
30764;DHT22;17497;51.476;7.770;2023-07-31T06:20:03;16.20;99.90
30764;DHT22;17497;51.476;7.770;2023-07-31T06:22:31;16.20;99.90
30764;DHT22;17497;51.476;7.770;2023-07-31T06:24:58;16.20;99.90
30764;DHT22;17497;51.476;7.770;2023-07-31T06:27:25;16.30;99.90
30764;DHT22;17497;51.476;7.770;2023-07-31T06:29:52;16.30;99.90
30764;DHT22;17497;51.476;7.770;2023-07-31T06:32:18;16.40;99.90
30764;DHT22;17497;51.476;7.770;2023-07-31T06:34:45;16.40;99.90
30764;DHT22;17497;51.476;7.770;2023-07-31T06:37:14;16.40;99.90
30764;DHT22;17497;51.476;7.770;2023-07-31T06:39:41;16.30;99.90
30764;DHT22;17497;51.476;7.770;2023-07-31T06:42:08;16.40;99.90
30764;DHT22;17497;51.476;7.770;2023-07-31T06:44:34;16.40;99.90
30764;DHT22;17497;51.476;7.770;2023-07-31T06:47:01;16.40;99.90
30764;DHT22;17497;51.476;7.770;2023-07-31T06:49:28;16.40;99.90
30764;DHT22;17497;51.476;7.770;2023-07-31T06:51:55;16.50;99.90
30764;DHT22;17497;51.476;7.770;2023-07-31T06:54:21;16.50;99.90
30764;DHT22;17497;51.476;7.770;2023-07-31T06:56:48;16.50;99.90
30764;DHT22;17497;51.476;7.770;2023-07-31T06:59:15;16.60;99.90
30764;DHT22;17497;51.476;7.770;2023-07-31T07:01:44;16.60;99.90
30764;DHT22;17497;51.476;7.770;2023-07-31T07:04:11;16.60;99.90
30764;DHT22;17497;51.476;7.770;2023-07-31T07:06:37;16.50;99.90
30764;DHT22;17497;51.476;7.770;2023-07-31T07:09:05;16.60;99.90
30764;DHT22;17497;51.476;7.770;2023-07-31T07:11:32;16.50;99.90
30764;DHT22;17497;51.476;7.770;2023-07-31T07:13:59;16.50;99.90
30764;DHT22;17497;51.476;7.770;2023-07-31T07:16:28;16.50;99.90
30764;DHT22;17497;51.476;7.770;2023-07-31T07:18:55;16.60;99.90
30764;DHT22;17497;51.476;7.770;2023-07-31T07:21:30;16.60;99.90
30764;DHT22;17497;51.476;7.770;2023-07-31T07:23:57;16.50;99.90
30764;DHT22;17497;51.476;7.770;2023-07-31T07:26:26;16.50;99.90
30764;DHT22;17497;51.476;7.770;2023-07-31T07:28:52;16.50;99.90
30764;DHT22;17497;51.476;7.770;2023-07-31T07:31:19;16.50;99.90
30764;DHT22;17497;51.476;7.770;2023-07-31T07:33:46;16.50;99.90
30764;DHT22;17497;51.476;7.770;2023-07-31T07:36:13;16.50;99.90
30764;DHT22;17497;51.476;7.770;2023-07-31T07:38:40;16.50;99.90
30764;DHT22;17497;51.476;7.770;2023-07-31T07:41:07;16.50;99.90
30764;DHT22;17497;51.476;7.770;2023-07-31T07:43:34;16.50;99.90
30764;DHT22;17497;51.476;7.770;2023-07-31T07:46:01;16.50;99.90
30764;DHT22;17497;51.476;7.770;2023-07-31T07:48:30;16.50;99.90
30764;DHT22;17497;51.476;7.770;2023-07-31T07:51:07;16.50;99.90
30764;DHT22;17497;51.476;7.770;2023-07-31T07:53:58;16.50;99.90
30764;DHT22;17497;51.476;7.770;2023-07-31T07:56:26;16.50;99.90
30764;DHT22;17497;51.476;7.770;2023-07-31T07:59:00;16.50;99.90
30764;DHT22;17497;51.476;7.770;2023-07-31T08:01:30;16.50;99.90
30764;DHT22;17497;51.476;7.770;2023-07-31T08:04:02;16.50;99.90
30764;DHT22;17497;51.476;7.770;2023-07-31T08:06:32;16.60;99.90
30764;DHT22;17497;51.476;7.770;2023-07-31T08:09:10;16.50;99.90
30764;DHT22;17497;51.476;7.770;2023-07-31T08:11:37;16.50;99.90
30764;DHT22;17497;51.476;7.770;2023-07-31T08:14:05;16.50;99.90
30764;DHT22;17497;51.476;7.770;2023-07-31T08:16:35;16.50;99.90
30764;DHT22;17497;51.476;7.770;2023-07-31T08:19:02;16.50;99.90
30764;DHT22;17497;51.476;7.770;2023-07-31T08:21:29;16.50;99.90
30764;DHT22;17497;51.476;7.770;2023-07-31T08:23:57;16.40;99.90
30764;DHT22;17497;51.476;7.770;2023-07-31T08:26:27;16.30;99.90
30764;DHT22;17497;51.476;7.770;2023-07-31T08:28:54;16.30;99.90
30764;DHT22;17497;51.476;7.770;2023-07-31T08:31:21;16.40;99.90
30764;DHT22;17497;51.476;7.770;2023-07-31T08:33:48;16.40;99.90
30764;DHT22;17497;51.476;7.770;2023-07-31T08:36:15;16.40;99.90
30764;DHT22;17497;51.476;7.770;2023-07-31T08:38:44;16.50;99.90
30764;DHT22;17497;51.476;7.770;2023-07-31T08:41:11;16.60;99.90
30764;DHT22;17497;51.476;7.770;2023-07-31T08:43:40;16.50;99.90
30764;DHT22;17497;51.476;7.770;2023-07-31T08:46:07;16.50;99.90
30764;DHT22;17497;51.476;7.770;2023-07-31T08:48:35;16.40;99.90
30764;DHT22;17497;51.476;7.770;2023-07-31T08:51:06;16.40;99.90
30764;DHT22;17497;51.476;7.770;2023-07-31T08:53:33;16.40;99.90
30764;DHT22;17497;51.476;7.770;2023-07-31T08:58:39;16.40;99.90
30764;DHT22;17497;51.476;7.770;2023-07-31T09:01:06;16.50;99.90
30764;DHT22;17497;51.476;7.770;2023-07-31T09:03:34;16.50;99.90
30764;DHT22;17497;51.476;7.770;2023-07-31T09:06:03;16.50;99.90
30764;DHT22;17497;51.476;7.770;2023-07-31T09:08:33;16.50;99.90
30764;DHT22;17497;51.476;7.770;2023-07-31T09:11:01;16.60;99.90
30764;DHT22;17497;51.476;7.770;2023-07-31T09:13:30;16.70;99.90
30764;DHT22;17497;51.476;7.770;2023-07-31T09:15:58;16.80;99.90
30764;DHT22;17497;51.476;7.770;2023-07-31T09:18:25;16.80;99.90
30764;DHT22;17497;51.476;7.770;2023-07-31T09:21:08;16.90;99.90
30764;DHT22;17497;51.476;7.770;2023-07-31T09:23:45;16.90;99.90
30764;DHT22;17497;51.476;7.770;2023-07-31T09:26:35;17.00;99.90
30764;DHT22;17497;51.476;7.770;2023-07-31T09:29:07;17.00;99.90
30764;DHT22;17497;51.476;7.770;2023-07-31T09:31:44;17.00;99.90
30764;DHT22;17497;51.476;7.770;2023-07-31T09:34:12;17.00;99.90
30764;DHT22;17497;51.476;7.770;2023-07-31T09:36:49;16.90;99.90
30764;DHT22;17497;51.476;7.770;2023-07-31T09:39:17;16.80;99.90
30764;DHT22;17497;51.476;7.770;2023-07-31T09:41:47;16.70;99.90
30764;DHT22;17497;51.476;7.770;2023-07-31T09:44:14;16.50;99.90
30764;DHT22;17497;51.476;7.770;2023-07-31T09:46:41;16.30;99.90
30764;DHT22;17497;51.476;7.770;2023-07-31T09:49:12;16.30;99.90
30764;DHT22;17497;51.476;7.770;2023-07-31T09:51:42;16.10;99.90
30764;DHT22;17497;51.476;7.770;2023-07-31T09:54:14;16.10;99.90
30764;DHT22;17497;51.476;7.770;2023-07-31T09:56:43;16.00;99.90
30764;DHT22;17497;51.476;7.770;2023-07-31T09:59:12;16.00;99.90
30764;DHT22;17497;51.476;7.770;2023-07-31T10:01:43;16.00;99.90
30764;DHT22;17497;51.476;7.770;2023-07-31T10:04:11;16.00;99.90
30764;DHT22;17497;51.476;7.770;2023-07-31T10:06:39;16.10;99.90
30764;DHT22;17497;51.476;7.770;2023-07-31T10:09:09;16.20;99.90
30764;DHT22;17497;51.476;7.770;2023-07-31T10:11:53;16.30;99.90
30764;DHT22;17497;51.476;7.770;2023-07-31T10:14:23;16.40;99.90
30764;DHT22;17497;51.476;7.770;2023-07-31T10:16:52;16.60;99.90
30764;DHT22;17497;51.476;7.770;2023-07-31T10:19:20;16.70;99.90
30764;DHT22;17497;51.476;7.770;2023-07-31T10:21:49;16.80;99.90
30764;DHT22;17497;51.476;7.770;2023-07-31T10:24:16;16.70;99.90
30764;DHT22;17497;51.476;7.770;2023-07-31T10:26:45;16.70;99.90
30764;DHT22;17497;51.476;7.770;2023-07-31T10:29:15;16.70;99.90
30764;DHT22;17497;51.476;7.770;2023-07-31T10:31:43;16.80;99.90
30764;DHT22;17497;51.476;7.770;2023-07-31T10:34:11;16.90;99.90
30764;DHT22;17497;51.476;7.770;2023-07-31T10:36:38;17.00;99.90
30764;DHT22;17497;51.476;7.770;2023-07-31T10:39:36;16.90;99.90
30764;DHT22;17497;51.476;7.770;2023-07-31T10:42:11;16.80;99.90
30764;DHT22;17497;51.476;7.770;2023-07-31T10:44:43;16.90;99.90
30764;DHT22;17497;51.476;7.770;2023-07-31T10:47:10;16.90;99.90
30764;DHT22;17497;51.476;7.770;2023-07-31T10:49:39;16.90;99.90
30764;DHT22;17497;51.476;7.770;2023-07-31T10:52:11;16.90;99.90
30764;DHT22;17497;51.476;7.770;2023-07-31T10:54:39;16.80;99.90
30764;DHT22;17497;51.476;7.770;2023-07-31T10:57:22;16.90;99.90
30764;DHT22;17497;51.476;7.770;2023-07-31T11:00:17;17.00;99.90
30764;DHT22;17497;51.476;7.770;2023-07-31T11:03:05;17.00;99.90
30764;DHT22;17497;51.476;7.770;2023-07-31T11:05:48;17.00;99.90
30764;DHT22;17497;51.476;7.770;2023-07-31T11:08:26;17.00;99.90
30764;DHT22;17497;51.476;7.770;2023-07-31T11:16:24;16.80;99.90
30764;DHT22;17497;51.476;7.770;2023-07-31T11:18:55;16.80;99.90
30764;DHT22;17497;51.476;7.770;2023-07-31T11:21:40;16.70;99.90
30764;DHT22;17497;51.476;7.770;2023-07-31T11:24:12;16.80;99.90
30764;DHT22;17497;51.476;7.770;2023-07-31T11:26:38;16.70;99.90
30764;DHT22;17497;51.476;7.770;2023-07-31T11:29:12;16.70;99.90
30764;DHT22;17497;51.476;7.770;2023-07-31T11:31:47;16.70;99.90
30764;DHT22;17497;51.476;7.770;2023-07-31T11:34:14;16.80;99.90
30764;DHT22;17497;51.476;7.770;2023-07-31T11:36:53;16.80;99.90
30764;DHT22;17497;51.476;7.770;2023-07-31T11:39:19;16.80;99.90
30764;DHT22;17497;51.476;7.770;2023-07-31T11:41:46;16.80;99.90
30764;DHT22;17497;51.476;7.770;2023-07-31T11:44:13;16.70;99.90
30764;DHT22;17497;51.476;7.770;2023-07-31T11:46:56;16.70;99.90
30764;DHT22;17497;51.476;7.770;2023-07-31T11:49:23;16.70;99.90
30764;DHT22;17497;51.476;7.770;2023-07-31T11:51:50;16.60;99.90
30764;DHT22;17497;51.476;7.770;2023-07-31T11:54:17;16.60;99.90
30764;DHT22;17497;51.476;7.770;2023-07-31T11:56:44;16.70;99.90
30764;DHT22;17497;51.476;7.770;2023-07-31T11:59:11;16.70;99.90
30764;DHT22;17497;51.476;7.770;2023-07-31T12:01:41;16.70;99.90
30764;DHT22;17497;51.476;7.770;2023-07-31T12:04:09;16.70;99.90
30764;DHT22;17497;51.476;7.770;2023-07-31T12:06:56;16.80;99.90
30764;DHT22;17497;51.476;7.770;2023-07-31T12:09:28;16.90;99.90
30764;DHT22;17497;51.476;7.770;2023-07-31T12:11:56;16.90;99.90
30764;DHT22;17497;51.476;7.770;2023-07-31T12:14:27;17.00;99.90
30764;DHT22;17497;51.476;7.770;2023-07-31T12:16:59;17.00;99.90
30764;DHT22;17497;51.476;7.770;2023-07-31T12:19:26;17.10;99.90
30764;DHT22;17497;51.476;7.770;2023-07-31T12:21:56;17.20;99.90
30764;DHT22;17497;51.476;7.770;2023-07-31T12:24:30;17.20;99.90
30764;DHT22;17497;51.476;7.770;2023-07-31T12:26:57;17.30;99.90
30764;DHT22;17497;51.476;7.770;2023-07-31T12:29:23;17.20;99.90
30764;DHT22;17497;51.476;7.770;2023-07-31T12:31:59;17.30;99.90
30764;DHT22;17497;51.476;7.770;2023-07-31T12:34:28;17.30;99.90
30764;DHT22;17497;51.476;7.770;2023-07-31T12:36:55;17.30;99.90
30764;DHT22;17497;51.476;7.770;2023-07-31T12:39:23;17.20;99.90
30764;DHT22;17497;51.476;7.770;2023-07-31T12:41:50;17.30;99.90
30764;DHT22;17497;51.476;7.770;2023-07-31T12:44:17;17.40;99.90
30764;DHT22;17497;51.476;7.770;2023-07-31T12:46:46;17.50;99.90
30764;DHT22;17497;51.476;7.770;2023-07-31T12:49:13;17.60;99.90
30764;DHT22;17497;51.476;7.770;2023-07-31T12:51:40;17.90;99.90
30764;DHT22;17497;51.476;7.770;2023-07-31T12:54:06;18.00;99.90
30764;DHT22;17497;51.476;7.770;2023-07-31T12:56:35;18.10;99.90
30764;DHT22;17497;51.476;7.770;2023-07-31T12:59:01;18.20;99.90
30764;DHT22;17497;51.476;7.770;2023-07-31T13:01:31;18.10;99.90
30764;DHT22;17497;51.476;7.770;2023-07-31T13:07:05;18.00;99.90
30764;DHT22;17497;51.476;7.770;2023-07-31T13:09:33;18.00;99.90
30764;DHT22;17497;51.476;7.770;2023-07-31T13:12:02;17.90;99.90
30764;DHT22;17497;51.476;7.770;2023-07-31T13:14:29;17.90;99.90
30764;DHT22;17497;51.476;7.770;2023-07-31T13:16:58;17.90;99.90
30764;DHT22;17497;51.476;7.770;2023-07-31T13:19:25;17.80;99.90
30764;DHT22;17497;51.476;7.770;2023-07-31T13:21:52;17.70;99.90
30764;DHT22;17497;51.476;7.770;2023-07-31T13:24:19;17.70;99.90
30764;DHT22;17497;51.476;7.770;2023-07-31T13:26:45;17.70;99.90
30764;DHT22;17497;51.476;7.770;2023-07-31T13:29:12;17.70;99.90
30764;DHT22;17497;51.476;7.770;2023-07-31T13:31:39;17.70;99.90
30764;DHT22;17497;51.476;7.770;2023-07-31T13:34:06;17.60;99.90
30764;DHT22;17497;51.476;7.770;2023-07-31T13:36:33;17.60;99.90
30764;DHT22;17497;51.476;7.770;2023-07-31T13:39:00;17.50;99.90
30764;DHT22;17497;51.476;7.770;2023-07-31T13:41:27;17.60;99.90
30764;DHT22;17497;51.476;7.770;2023-07-31T13:43:54;17.60;99.90
30764;DHT22;17497;51.476;7.770;2023-07-31T13:46:26;17.60;99.90
30764;DHT22;17497;51.476;7.770;2023-07-31T13:48:54;17.60;99.90
30764;DHT22;17497;51.476;7.770;2023-07-31T13:51:26;17.60;99.90
30764;DHT22;17497;51.476;7.770;2023-07-31T13:53:57;17.60;99.90
30764;DHT22;17497;51.476;7.770;2023-07-31T13:56:23;17.70;99.90
30764;DHT22;17497;51.476;7.770;2023-07-31T13:58:50;17.70;99.90
30764;DHT22;17497;51.476;7.770;2023-07-31T14:01:17;17.80;99.90
30764;DHT22;17497;51.476;7.770;2023-07-31T14:03:44;17.70;99.90
30764;DHT22;17497;51.476;7.770;2023-07-31T14:06:13;17.70;99.90
30764;DHT22;17497;51.476;7.770;2023-07-31T14:08:40;17.70;99.90
30764;DHT22;17497;51.476;7.770;2023-07-31T14:11:06;17.60;99.90
30764;DHT22;17497;51.476;7.770;2023-07-31T14:13:34;17.60;99.90
30764;DHT22;17497;51.476;7.770;2023-07-31T14:16:00;17.60;99.90
30764;DHT22;17497;51.476;7.770;2023-07-31T14:18:27;17.60;99.90
30764;DHT22;17497;51.476;7.770;2023-07-31T14:20:55;17.60;99.90
30764;DHT22;17497;51.476;7.770;2023-07-31T14:23:22;17.60;99.90
30764;DHT22;17497;51.476;7.770;2023-07-31T14:25:48;17.70;99.90
30764;DHT22;17497;51.476;7.770;2023-07-31T14:28:15;17.70;99.90
30764;DHT22;17497;51.476;7.770;2023-07-31T14:30:42;17.70;99.90
30764;DHT22;17497;51.476;7.770;2023-07-31T14:33:09;17.80;99.90
30764;DHT22;17497;51.476;7.770;2023-07-31T14:35:36;17.90;99.90
30764;DHT22;17497;51.476;7.770;2023-07-31T14:38:05;17.90;99.90
30764;DHT22;17497;51.476;7.770;2023-07-31T14:40:32;18.00;99.90
30764;DHT22;17497;51.476;7.770;2023-07-31T14:42:59;18.00;99.90
30764;DHT22;17497;51.476;7.770;2023-07-31T14:45:26;18.10;99.90
30764;DHT22;17497;51.476;7.770;2023-07-31T14:47:53;18.30;99.90
30764;DHT22;17497;51.476;7.770;2023-07-31T14:50:20;18.30;99.90
30764;DHT22;17497;51.476;7.770;2023-07-31T14:52:48;18.40;99.90
30764;DHT22;17497;51.476;7.770;2023-07-31T14:55:15;18.40;99.90
30764;DHT22;17497;51.476;7.770;2023-07-31T14:57:42;18.50;99.90
30764;DHT22;17497;51.476;7.770;2023-07-31T15:00:09;18.50;99.90
30764;DHT22;17497;51.476;7.770;2023-07-31T15:02:37;18.60;99.90
30764;DHT22;17497;51.476;7.770;2023-07-31T15:05:05;18.70;99.90
30764;DHT22;17497;51.476;7.770;2023-07-31T15:07:32;18.70;99.90
30764;DHT22;17497;51.476;7.770;2023-07-31T15:10:01;18.70;99.90
30764;DHT22;17497;51.476;7.770;2023-07-31T15:12:28;18.70;99.90
30764;DHT22;17497;51.476;7.770;2023-07-31T15:14:55;18.60;99.90
30764;DHT22;17497;51.476;7.770;2023-07-31T15:17:21;18.60;99.90
30764;DHT22;17497;51.476;7.770;2023-07-31T15:19:48;18.50;99.90
30764;DHT22;17497;51.476;7.770;2023-07-31T15:22:15;18.60;99.90
30764;DHT22;17497;51.476;7.770;2023-07-31T15:24:42;18.50;99.90
30764;DHT22;17497;51.476;7.770;2023-07-31T15:27:08;18.50;99.90
30764;DHT22;17497;51.476;7.770;2023-07-31T15:29:35;18.50;99.90
30764;DHT22;17497;51.476;7.770;2023-07-31T15:32:04;18.50;99.90
30764;DHT22;17497;51.476;7.770;2023-07-31T15:34:32;18.60;99.90
30764;DHT22;17497;51.476;7.770;2023-07-31T15:36:59;18.70;99.90
30764;DHT22;17497;51.476;7.770;2023-07-31T15:39:26;18.60;99.90
30764;DHT22;17497;51.476;7.770;2023-07-31T15:41:52;18.60;99.90
30764;DHT22;17497;51.476;7.770;2023-07-31T15:44:21;18.60;99.90
30764;DHT22;17497;51.476;7.770;2023-07-31T15:46:50;18.50;99.90
30764;DHT22;17497;51.476;7.770;2023-07-31T15:49:17;18.50;99.90
30764;DHT22;17497;51.476;7.770;2023-07-31T15:51:44;18.50;99.90
30764;DHT22;17497;51.476;7.770;2023-07-31T15:54:11;18.50;99.90
30764;DHT22;17497;51.476;7.770;2023-07-31T15:56:37;18.50;99.90